sensor_id;sensor_type;location;lat;lon;timestamp;pressure;altitude;pressure_sealevel;temperature;humidity
69198;BME280;56311;50.298;8.514;2024-01-25T00:00:00;98680.0;;;6.9;58.6
69198;BME280;56311;50.298;8.514;2024-01-25T00:02:00;98680.0;;;6.8;58.4
69198;BME280;56311;50.298;8.514;2024-01-25T00:04:00;98680.0;;;6.9;58.0
69198;BME280;56311;50.298;8.514;2024-01-25T00:06:00;98680.0;;;6.8;57.9
69198;BME280;56311;50.298;8.514;2024-01-25T00:08:00;98670.0;;;6.8;58.1
69198;BME280;56311;50.298;8.514;2024-01-25T00:10:00;98660.0;;;6.8;58.8
69198;BME280;56311;50.298;8.514;2024-01-25T00:12:00;98670.0;;;6.9;58.5
69198;BME280;56311;50.298;8.514;2024-01-25T00:14:00;98680.0;;;6.9;58.8
69198;BME280;56311;50.298;8.514;2024-01-25T00:16:00;98680.0;;;6.9;57.4
69198;BME280;56311;50.298;8.514;2024-01-25T00:18:00;98680.0;;;6.9;57.5
69198;BME280;56311;50.298;8.514;2024-01-25T00:20:00;98680.0;;;6.9;57.5
69198;BME280;56311;50.298;8.514;2024-01-25T00:22:00;98680.0;;;6.8;58.0
69198;BME280;56311;50.298;8.514;2024-01-25T00:24:00;98700.0;;;6.9;57.7
69198;BME280;56311;50.298;8.514;2024-01-25T00:26:00;98700.0;;;6.8;57.8
69198;BME280;56311;50.298;8.514;2024-01-25T00:28:00;98700.0;;;6.9;57.8
69198;BME280;56311;50.298;8.514;2024-01-25T00:30:00;98700.0;;;6.9;57.4
69198;BME280;56311;50.298;8.514;2024-01-25T00:32:00;98690.0;;;6.9;56.9
69198;BME280;56311;50.298;8.514;2024-01-25T00:34:02;98680.0;;;6.9;58.9
69198;BME280;56311;50.298;8.514;2024-01-25T00:36:00;98690.0;;;7.0;58.8
69198;BME280;56311;50.298;8.514;2024-01-25T00:38:01;98690.0;;;7.0;59.1
69198;BME280;56311;50.298;8.514;2024-01-25T00:40:00;98690.0;;;7.0;58.1
69198;BME280;56311;50.298;8.514;2024-01-25T00:42:04;98680.0;;;7.0;57.4
69198;BME280;56311;50.298;8.514;2024-01-25T00:44:00;98680.0;;;7.0;58.2
69198;BME280;56311;50.298;8.514;2024-01-25T00:46:00;98690.0;;;7.1;59.1
69198;BME280;56311;50.298;8.514;2024-01-25T00:48:01;98690.0;;;7.1;60.1
69198;BME280;56311;50.298;8.514;2024-01-25T00:50:01;98690.0;;;7.1;59.4
69198;BME280;56311;50.298;8.514;2024-01-25T00:52:02;98690.0;;;7.0;59.2
69198;BME280;56311;50.298;8.514;2024-01-25T00:54:00;98700.0;;;7.1;58.2
69198;BME280;56311;50.298;8.514;2024-01-25T00:56:01;98710.0;;;7.0;58.4
69198;BME280;56311;50.298;8.514;2024-01-25T00:58:00;98710.0;;;7.0;59.2
69198;BME280;56311;50.298;8.514;2024-01-25T01:00:01;98710.0;;;7.0;58.5
69198;BME280;56311;50.298;8.514;2024-01-25T01:02:01;98710.0;;;7.0;60.4
69198;BME280;56311;50.298;8.514;2024-01-25T01:04:00;98710.0;;;7.0;60.6
69198;BME280;56311;50.298;8.514;2024-01-25T01:06:00;98720.0;;;7.0;59.6
69198;BME280;56311;50.298;8.514;2024-01-25T01:08:00;98720.0;;;7.0;59.2
69198;BME280;56311;50.298;8.514;2024-01-25T01:10:00;98720.0;;;7.0;59.2
69198;BME280;56311;50.298;8.514;2024-01-25T01:12:00;98720.0;;;7.0;59.6
69198;BME280;56311;50.298;8.514;2024-01-25T01:14:00;98720.0;;;7.1;59.4
69198;BME280;56311;50.298;8.514;2024-01-25T01:16:00;98730.0;;;7.1;59.2
69198;BME280;56311;50.298;8.514;2024-01-25T01:18:00;98730.0;;;7.1;60.3
69198;BME280;56311;50.298;8.514;2024-01-25T01:20:00;98720.0;;;7.1;60.3
69198;BME280;56311;50.298;8.514;2024-01-25T01:22:00;98720.0;;;7.1;60.1
69198;BME280;56311;50.298;8.514;2024-01-25T01:24:00;98720.0;;;7.1;58.7
69198;BME280;56311;50.298;8.514;2024-01-25T01:26:00;98720.0;;;7.1;58.5
69198;BME280;56311;50.298;8.514;2024-01-25T01:28:00;98720.0;;;7.1;58.2
69198;BME280;56311;50.298;8.514;2024-01-25T01:30:00;98710.0;;;7.1;60.0
69198;BME280;56311;50.298;8.514;2024-01-25T01:32:00;98720.0;;;7.1;58.1
69198;BME280;56311;50.298;8.514;2024-01-25T01:34:00;98710.0;;;7.1;59.5
69198;BME280;56311;50.298;8.514;2024-01-25T01:36:01;98720.0;;;7.1;59.9
69198;BME280;56311;50.298;8.514;2024-01-25T01:38:00;98710.0;;;7.0;59.4
69198;BME280;56311;50.298;8.514;2024-01-25T01:40:00;98720.0;;;6.9;58.9
69198;BME280;56311;50.298;8.514;2024-01-25T01:42:00;98720.0;;;7.0;59.1
69198;BME280;56311;50.298;8.514;2024-01-25T01:44:00;98720.0;;;6.9;59.2
69198;BME280;56311;50.298;8.514;2024-01-25T01:46:04;98720.0;;;6.9;60.1
69198;BME280;56311;50.298;8.514;2024-01-25T01:48:00;98720.0;;;6.9;59.3
69198;BME280;56311;50.298;8.514;2024-01-25T01:50:01;98720.0;;;6.9;61.0
69198;BME280;56311;50.298;8.514;2024-01-25T01:52:00;98730.0;;;6.9;59.8
69198;BME280;56311;50.298;8.514;2024-01-25T01:54:01;98720.0;;;6.9;60.3
69198;BME280;56311;50.298;8.514;2024-01-25T01:56:00;98720.0;;;6.9;59.3
69198;BME280;56311;50.298;8.514;2024-01-25T01:58:00;98710.0;;;6.9;59.9
69198;BME280;56311;50.298;8.514;2024-01-25T02:00:03;98720.0;;;6.9;61.4
69198;BME280;56311;50.298;8.514;2024-01-25T02:02:00;98740.0;;;6.9;61.0
69198;BME280;56311;50.298;8.514;2024-01-25T02:04:00;98730.0;;;6.9;59.5
69198;BME280;56311;50.298;8.514;2024-01-25T02:06:00;98710.0;;;7.0;60.3
69198;BME280;56311;50.298;8.514;2024-01-25T02:08:00;98710.0;;;6.9;61.0
69198;BME280;56311;50.298;8.514;2024-01-25T02:10:00;98720.0;;;6.9;60.7
69198;BME280;56311;50.298;8.514;2024-01-25T02:12:02;98720.0;;;6.8;62.7
69198;BME280;56311;50.298;8.514;2024-01-25T02:14:00;98720.0;;;6.9;62.8
69198;BME280;56311;50.298;8.514;2024-01-25T02:16:00;98710.0;;;6.9;61.1
69198;BME280;56311;50.298;8.514;2024-01-25T02:18:01;98710.0;;;6.9;60.3
69198;BME280;56311;50.298;8.514;2024-01-25T02:20:00;98720.0;;;6.8;61.5
69198;BME280;56311;50.298;8.514;2024-01-25T02:22:01;98730.0;;;6.8;61.4
69198;BME280;56311;50.298;8.514;2024-01-25T02:24:00;98730.0;;;6.7;60.2
69198;BME280;56311;50.298;8.514;2024-01-25T02:26:00;98730.0;;;6.7;60.1
69198;BME280;56311;50.298;8.514;2024-01-25T02:28:00;98720.0;;;6.7;59.0
69198;BME280;56311;50.298;8.514;2024-01-25T02:30:00;98720.0;;;6.7;60.0
69198;BME280;56311;50.298;8.514;2024-01-25T02:32:00;98730.0;;;6.8;61.3
69198;BME280;56311;50.298;8.514;2024-01-25T02:34:00;98730.0;;;6.7;60.1
69198;BME280;56311;50.298;8.514;2024-01-25T02:36:00;98730.0;;;6.8;60.0
69198;BME280;56311;50.298;8.514;2024-01-25T02:38:00;98730.0;;;6.7;61.5
69198;BME280;56311;50.298;8.514;2024-01-25T02:40:00;98730.0;;;6.8;61.6
69198;BME280;56311;50.298;8.514;2024-01-25T02:42:00;98730.0;;;6.8;60.0
69198;BME280;56311;50.298;8.514;2024-01-25T02:44:00;98730.0;;;6.8;60.3
69198;BME280;56311;50.298;8.514;2024-01-25T02:46:00;98730.0;;;6.9;61.0
69198;BME280;56311;50.298;8.514;2024-01-25T02:48:00;98740.0;;;6.9;60.2
69198;BME280;56311;50.298;8.514;2024-01-25T02:50:00;98730.0;;;6.9;60.0
69198;BME280;56311;50.298;8.514;2024-01-25T02:52:00;98730.0;;;6.9;59.8
69198;BME280;56311;50.298;8.514;2024-01-25T02:54:00;98730.0;;;7.0;60.7
69198;BME280;56311;50.298;8.514;2024-01-25T02:56:00;98730.0;;;6.9;60.0
69198;BME280;56311;50.298;8.514;2024-01-25T02:58:00;98740.0;;;6.9;60.1
69198;BME280;56311;50.298;8.514;2024-01-25T03:00:00;98740.0;;;6.9;61.6
69198;BME280;56311;50.298;8.514;2024-01-25T03:02:00;98730.0;;;7.0;61.3
69198;BME280;56311;50.298;8.514;2024-01-25T03:04:01;98730.0;;;6.9;61.7
69198;BME280;56311;50.298;8.514;2024-01-25T03:06:02;98740.0;;;7.0;61.3
69198;BME280;56311;50.298;8.514;2024-01-25T03:08:00;98740.0;;;7.0;61.2
69198;BME280;56311;50.298;8.514;2024-01-25T03:10:00;98750.0;;;6.9;60.3
69198;BME280;56311;50.298;8.514;2024-01-25T03:12:00;98750.0;;;6.9;60.2
69198;BME280;56311;50.298;8.514;2024-01-25T03:14:00;98760.0;;;6.9;61.7
69198;BME280;56311;50.298;8.514;2024-01-25T03:16:01;98760.0;;;6.8;62.3
69198;BME280;56311;50.298;8.514;2024-01-25T03:18:00;98770.0;;;6.8;61.6
69198;BME280;56311;50.298;8.514;2024-01-25T03:20:00;98760.0;;;6.8;62.1
69198;BME280;56311;50.298;8.514;2024-01-25T03:22:00;98760.0;;;6.8;60.6
69198;BME280;56311;50.298;8.514;2024-01-25T03:24:00;98770.0;;;6.8;60.8
69198;BME280;56311;50.298;8.514;2024-01-25T03:26:01;98780.0;;;6.7;61.2
69198;BME280;56311;50.298;8.514;2024-01-25T03:28:00;98780.0;;;6.7;60.8
69198;BME280;56311;50.298;8.514;2024-01-25T03:30:00;98780.0;;;6.7;61.4
69198;BME280;56311;50.298;8.514;2024-01-25T03:32:00;98780.0;;;6.7;61.0
69198;BME280;56311;50.298;8.514;2024-01-25T03:34:00;98780.0;;;6.7;60.8
69198;BME280;56311;50.298;8.514;2024-01-25T03:36:01;98780.0;;;6.7;61.7
69198;BME280;56311;50.298;8.514;2024-01-25T03:38:00;98780.0;;;6.7;61.8
69198;BME280;56311;50.298;8.514;2024-01-25T03:40:00;98790.0;;;6.7;62.3
69198;BME280;56311;50.298;8.514;2024-01-25T03:42:00;98790.0;;;6.8;61.3
69198;BME280;56311;50.298;8.514;2024-01-25T03:44:00;98780.0;;;6.7;62.0
69198;BME280;56311;50.298;8.514;2024-01-25T03:46:00;98790.0;;;6.7;62.6
69198;BME280;56311;50.298;8.514;2024-01-25T03:48:00;98790.0;;;6.7;63.2
69198;BME280;56311;50.298;8.514;2024-01-25T03:50:00;98790.0;;;6.7;61.1
69198;BME280;56311;50.298;8.514;2024-01-25T03:52:00;98780.0;;;6.7;61.5
69198;BME280;56311;50.298;8.514;2024-01-25T03:54:00;98780.0;;;6.6;61.8
69198;BME280;56311;50.298;8.514;2024-01-25T03:56:00;98790.0;;;6.6;60.5
69198;BME280;56311;50.298;8.514;2024-01-25T03:58:00;98790.0;;;6.6;61.9
69198;BME280;56311;50.298;8.514;2024-01-25T04:00:00;98790.0;;;6.5;60.7
69198;BME280;56311;50.298;8.514;2024-01-25T04:02:00;98790.0;;;6.5;60.8
69198;BME280;56311;50.298;8.514;2024-01-25T04:04:00;98780.0;;;6.5;61.0
69198;BME280;56311;50.298;8.514;2024-01-25T04:06:00;98780.0;;;6.5;61.3
69198;BME280;56311;50.298;8.514;2024-01-25T04:08:00;98790.0;;;6.5;60.7
69198;BME280;56311;50.298;8.514;2024-01-25T04:10:00;98780.0;;;6.5;61.0
69198;BME280;56311;50.298;8.514;2024-01-25T04:12:00;98770.0;;;6.5;60.5
69198;BME280;56311;50.298;8.514;2024-01-25T04:14:00;98780.0;;;6.5;61.2
69198;BME280;56311;50.298;8.514;2024-01-25T04:16:00;98780.0;;;6.5;61.1
69198;BME280;56311;50.298;8.514;2024-01-25T04:18:00;98780.0;;;6.5;62.1
69198;BME280;56311;50.298;8.514;2024-01-25T04:20:00;98790.0;;;6.5;61.6
69198;BME280;56311;50.298;8.514;2024-01-25T04:22:00;98790.0;;;6.5;62.1
69198;BME280;56311;50.298;8.514;2024-01-25T04:24:00;98780.0;;;6.4;62.6
69198;BME280;56311;50.298;8.514;2024-01-25T04:26:00;98780.0;;;6.4;63.7
69198;BME280;56311;50.298;8.514;2024-01-25T04:28:00;98790.0;;;6.4;63.3
69198;BME280;56311;50.298;8.514;2024-01-25T04:30:01;98800.0;;;6.5;62.9
69198;BME280;56311;50.298;8.514;2024-01-25T04:32:00;98810.0;;;6.4;61.7
69198;BME280;56311;50.298;8.514;2024-01-25T04:34:00;98810.0;;;6.5;62.0
69198;BME280;56311;50.298;8.514;2024-01-25T04:36:00;98820.0;;;6.4;62.1
69198;BME280;56311;50.298;8.514;2024-01-25T04:38:00;98820.0;;;6.4;62.4
69198;BME280;56311;50.298;8.514;2024-01-25T04:40:00;98820.0;;;6.4;62.8
69198;BME280;56311;50.298;8.514;2024-01-25T04:42:00;98820.0;;;6.4;62.8
69198;BME280;56311;50.298;8.514;2024-01-25T04:44:00;98810.0;;;6.4;61.2
69198;BME280;56311;50.298;8.514;2024-01-25T04:46:00;98820.0;;;6.4;61.9
69198;BME280;56311;50.298;8.514;2024-01-25T04:48:00;98820.0;;;6.5;62.2
69198;BME280;56311;50.298;8.514;2024-01-25T04:50:00;98830.0;;;6.5;62.5
69198;BME280;56311;50.298;8.514;2024-01-25T04:52:00;98830.0;;;6.5;61.7
69198;BME280;56311;50.298;8.514;2024-01-25T04:54:00;98840.0;;;6.5;62.0
69198;BME280;56311;50.298;8.514;2024-01-25T04:56:00;98840.0;;;6.5;62.1
69198;BME280;56311;50.298;8.514;2024-01-25T04:58:00;98850.0;;;6.5;61.2
69198;BME280;56311;50.298;8.514;2024-01-25T05:00:00;98840.0;;;6.5;60.4
69198;BME280;56311;50.298;8.514;2024-01-25T05:02:00;98840.0;;;6.5;61.5
69198;BME280;56311;50.298;8.514;2024-01-25T05:04:00;98850.0;;;6.5;61.5
69198;BME280;56311;50.298;8.514;2024-01-25T05:06:00;98850.0;;;6.5;62.3
69198;BME280;56311;50.298;8.514;2024-01-25T05:08:00;98850.0;;;6.5;61.2
69198;BME280;56311;50.298;8.514;2024-01-25T05:10:00;98840.0;;;6.5;62.1
69198;BME280;56311;50.298;8.514;2024-01-25T05:12:00;98840.0;;;6.5;62.9
69198;BME280;56311;50.298;8.514;2024-01-25T05:14:00;98840.0;;;6.5;62.5
69198;BME280;56311;50.298;8.514;2024-01-25T05:16:00;98840.0;;;6.5;62.5
69198;BME280;56311;50.298;8.514;2024-01-25T05:18:01;98850.0;;;6.4;63.1
69198;BME280;56311;50.298;8.514;2024-01-25T05:20:00;98860.0;;;6.4;62.2
69198;BME280;56311;50.298;8.514;2024-01-25T05:22:00;98860.0;;;6.4;62.3
69198;BME280;56311;50.298;8.514;2024-01-25T05:24:00;98870.0;;;6.3;62.5
69198;BME280;56311;50.298;8.514;2024-01-25T05:26:00;98870.0;;;6.3;62.6
69198;BME280;56311;50.298;8.514;2024-01-25T05:28:00;98860.0;;;6.3;62.6
69198;BME280;56311;50.298;8.514;2024-01-25T05:30:00;98860.0;;;6.3;62.2
69198;BME280;56311;50.298;8.514;2024-01-25T05:32:00;98860.0;;;6.3;61.9
69198;BME280;56311;50.298;8.514;2024-01-25T05:34:00;98860.0;;;6.3;62.6
69198;BME280;56311;50.298;8.514;2024-01-25T05:36:00;98870.0;;;6.3;63.2
69198;BME280;56311;50.298;8.514;2024-01-25T05:38:00;98860.0;;;6.3;61.9
69198;BME280;56311;50.298;8.514;2024-01-25T05:40:00;98870.0;;;6.3;62.6
69198;BME280;56311;50.298;8.514;2024-01-25T05:42:00;98860.0;;;6.3;63.0
69198;BME280;56311;50.298;8.514;2024-01-25T05:44:00;98870.0;;;6.3;62.9
69198;BME280;56311;50.298;8.514;2024-01-25T05:46:00;98880.0;;;6.3;62.2
69198;BME280;56311;50.298;8.514;2024-01-25T05:48:00;98870.0;;;6.3;62.2
69198;BME280;56311;50.298;8.514;2024-01-25T05:50:00;98880.0;;;6.2;62.2
69198;BME280;56311;50.298;8.514;2024-01-25T05:52:00;98880.0;;;6.2;61.9
69198;BME280;56311;50.298;8.514;2024-01-25T05:54:00;98880.0;;;6.3;61.2
69198;BME280;56311;50.298;8.514;2024-01-25T05:56:00;98880.0;;;6.2;62.0
69198;BME280;56311;50.298;8.514;2024-01-25T05:58:00;98880.0;;;6.2;61.9
69198;BME280;56311;50.298;8.514;2024-01-25T06:00:00;98880.0;;;6.2;62.1
69198;BME280;56311;50.298;8.514;2024-01-25T06:02:00;98880.0;;;6.2;62.3
69198;BME280;56311;50.298;8.514;2024-01-25T06:04:00;98870.0;;;6.2;62.0
69198;BME280;56311;50.298;8.514;2024-01-25T06:06:01;98880.0;;;6.2;61.3
69198;BME280;56311;50.298;8.514;2024-01-25T06:08:00;98880.0;;;6.2;61.5
69198;BME280;56311;50.298;8.514;2024-01-25T06:10:00;98880.0;;;6.2;61.3
69198;BME280;56311;50.298;8.514;2024-01-25T06:12:00;98890.0;;;6.2;61.7
69198;BME280;56311;50.298;8.514;2024-01-25T06:14:00;98890.0;;;6.2;61.4
69198;BME280;56311;50.298;8.514;2024-01-25T06:16:00;98880.0;;;6.2;61.7
69198;BME280;56311;50.298;8.514;2024-01-25T06:18:01;98890.0;;;6.2;61.5
69198;BME280;56311;50.298;8.514;2024-01-25T06:20:00;98890.0;;;6.2;60.7
69198;BME280;56311;50.298;8.514;2024-01-25T06:22:00;98890.0;;;6.1;60.3
69198;BME280;56311;50.298;8.514;2024-01-25T06:24:00;98900.0;;;6.1;60.4
69198;BME280;56311;50.298;8.514;2024-01-25T06:26:00;98900.0;;;6.1;61.6
69198;BME280;56311;50.298;8.514;2024-01-25T06:28:00;98890.0;;;6.1;61.6
69198;BME280;56311;50.298;8.514;2024-01-25T06:30:00;98890.0;;;6.0;61.3
69198;BME280;56311;50.298;8.514;2024-01-25T06:32:00;98890.0;;;6.0;62.2
69198;BME280;56311;50.298;8.514;2024-01-25T06:34:00;98890.0;;;6.0;62.0
69198;BME280;56311;50.298;8.514;2024-01-25T06:36:00;98890.0;;;5.9;62.6
69198;BME280;56311;50.298;8.514;2024-01-25T06:38:00;98900.0;;;5.9;62.4
69198;BME280;56311;50.298;8.514;2024-01-25T06:40:01;98890.0;;;5.9;61.4
69198;BME280;56311;50.298;8.514;2024-01-25T06:42:00;98890.0;;;5.9;61.8
69198;BME280;56311;50.298;8.514;2024-01-25T06:44:00;98880.0;;;5.8;63.3
69198;BME280;56311;50.298;8.514;2024-01-25T06:46:00;98880.0;;;5.9;63.4
69198;BME280;56311;50.298;8.514;2024-01-25T06:48:00;98880.0;;;5.9;62.7
69198;BME280;56311;50.298;8.514;2024-01-25T06:50:00;98880.0;;;5.9;62.5
69198;BME280;56311;50.298;8.514;2024-01-25T06:52:00;98880.0;;;5.8;64.0
69198;BME280;56311;50.298;8.514;2024-01-25T06:54:00;98890.0;;;5.8;63.5
69198;BME280;56311;50.298;8.514;2024-01-25T06:56:00;98890.0;;;5.8;63.4
69198;BME280;56311;50.298;8.514;2024-01-25T06:58:00;98890.0;;;5.8;63.3
69198;BME280;56311;50.298;8.514;2024-01-25T07:00:00;98890.0;;;5.7;63.8
69198;BME280;56311;50.298;8.514;2024-01-25T07:02:00;98890.0;;;5.7;63.9
69198;BME280;56311;50.298;8.514;2024-01-25T07:04:00;98900.0;;;5.7;63.0
69198;BME280;56311;50.298;8.514;2024-01-25T07:06:00;98900.0;;;5.7;63.0
69198;BME280;56311;50.298;8.514;2024-01-25T07:08:00;98910.0;;;5.7;62.2
69198;BME280;56311;50.298;8.514;2024-01-25T07:10:00;98920.0;;;5.7;61.5
69198;BME280;56311;50.298;8.514;2024-01-25T07:12:00;98920.0;;;5.6;62.6
69198;BME280;56311;50.298;8.514;2024-01-25T07:14:01;98920.0;;;5.7;62.5
69198;BME280;56311;50.298;8.514;2024-01-25T07:16:00;98920.0;;;5.7;62.7
69198;BME280;56311;50.298;8.514;2024-01-25T07:18:00;98920.0;;;5.7;62.9
69198;BME280;56311;50.298;8.514;2024-01-25T07:20:00;98920.0;;;5.8;62.0
69198;BME280;56311;50.298;8.514;2024-01-25T07:22:00;98920.0;;;5.8;62.4
69198;BME280;56311;50.298;8.514;2024-01-25T07:24:02;98920.0;;;5.7;61.7
69198;BME280;56311;50.298;8.514;2024-01-25T07:26:00;98910.0;;;5.8;61.8
69198;BME280;56311;50.298;8.514;2024-01-25T07:28:00;98920.0;;;5.8;62.2
69198;BME280;56311;50.298;8.514;2024-01-25T07:30:00;98920.0;;;5.8;62.2
69198;BME280;56311;50.298;8.514;2024-01-25T07:32:01;98920.0;;;5.8;64.0
69198;BME280;56311;50.298;8.514;2024-01-25T07:34:00;98910.0;;;5.9;63.5
69198;BME280;56311;50.298;8.514;2024-01-25T07:36:00;98920.0;;;5.9;61.4
69198;BME280;56311;50.298;8.514;2024-01-25T07:38:00;98910.0;;;5.9;60.7
69198;BME280;56311;50.298;8.514;2024-01-25T07:40:00;98910.0;;;5.9;60.2
69198;BME280;56311;50.298;8.514;2024-01-25T07:42:01;98910.0;;;5.9;60.1
69198;BME280;56311;50.298;8.514;2024-01-25T07:44:00;98910.0;;;5.9;59.8
69198;BME280;56311;50.298;8.514;2024-01-25T07:46:00;98910.0;;;5.9;60.8
69198;BME280;56311;50.298;8.514;2024-01-25T07:48:00;98910.0;;;5.9;60.7
69198;BME280;56311;50.298;8.514;2024-01-25T07:50:00;98910.0;;;5.9;60.6
69198;BME280;56311;50.298;8.514;2024-01-25T07:52:00;98920.0;;;6.0;61.0
69198;BME280;56311;50.298;8.514;2024-01-25T07:54:00;98920.0;;;6.0;61.1
69198;BME280;56311;50.298;8.514;2024-01-25T07:56:00;98930.0;;;6.1;60.7
69198;BME280;56311;50.298;8.514;2024-01-25T07:58:00;98940.0;;;6.1;60.6
69198;BME280;56311;50.298;8.514;2024-01-25T08:00:00;98940.0;;;6.1;60.8
69198;BME280;56311;50.298;8.514;2024-01-25T08:02:00;98940.0;;;6.1;60.5
69198;BME280;56311;50.298;8.514;2024-01-25T08:04:00;98940.0;;;6.1;60.0
69198;BME280;56311;50.298;8.514;2024-01-25T08:06:02;98950.0;;;6.1;60.1
69198;BME280;56311;50.298;8.514;2024-01-25T08:08:00;98950.0;;;6.1;59.7
69198;BME280;56311;50.298;8.514;2024-01-25T08:10:00;98950.0;;;6.2;59.8
69198;BME280;56311;50.298;8.514;2024-01-25T08:12:00;98950.0;;;6.2;59.7
69198;BME280;56311;50.298;8.514;2024-01-25T08:14:00;98940.0;;;6.3;59.5
69198;BME280;56311;50.298;8.514;2024-01-25T08:16:00;98940.0;;;6.3;59.3
69198;BME280;56311;50.298;8.514;2024-01-25T08:18:00;98940.0;;;6.4;59.8
69198;BME280;56311;50.298;8.514;2024-01-25T08:20:00;98930.0;;;6.4;60.5
69198;BME280;56311;50.298;8.514;2024-01-25T08:22:00;98930.0;;;6.4;60.1
69198;BME280;56311;50.298;8.514;2024-01-25T08:24:00;98930.0;;;6.4;60.5
69198;BME280;56311;50.298;8.514;2024-01-25T08:26:00;98920.0;;;6.4;59.9
69198;BME280;56311;50.298;8.514;2024-01-25T08:28:00;98930.0;;;6.4;60.0
69198;BME280;56311;50.298;8.514;2024-01-25T08:30:00;98930.0;;;6.5;60.4
69198;BME280;56311;50.298;8.514;2024-01-25T08:32:00;98940.0;;;6.4;59.9
69198;BME280;56311;50.298;8.514;2024-01-25T08:34:00;98940.0;;;6.4;59.7
69198;BME280;56311;50.298;8.514;2024-01-25T08:36:01;98960.0;;;6.4;59.3
69198;BME280;56311;50.298;8.514;2024-01-25T08:38:00;98960.0;;;6.5;58.6
69198;BME280;56311;50.298;8.514;2024-01-25T08:40:00;98960.0;;;6.5;59.6
69198;BME280;56311;50.298;8.514;2024-01-25T08:42:00;98970.0;;;6.5;59.3
69198;BME280;56311;50.298;8.514;2024-01-25T08:44:00;98970.0;;;6.5;58.4
69198;BME280;56311;50.298;8.514;2024-01-25T08:46:00;98970.0;;;6.6;58.4
69198;BME280;56311;50.298;8.514;2024-01-25T08:48:00;98970.0;;;6.6;58.6
69198;BME280;56311;50.298;8.514;2024-01-25T08:50:00;98970.0;;;6.6;60.2
69198;BME280;56311;50.298;8.514;2024-01-25T08:52:00;98970.0;;;6.6;58.9
69198;BME280;56311;50.298;8.514;2024-01-25T08:54:00;98970.0;;;6.6;59.2
69198;BME280;56311;50.298;8.514;2024-01-25T08:56:00;98960.0;;;6.7;59.9
69198;BME280;56311;50.298;8.514;2024-01-25T08:58:00;98960.0;;;6.7;60.3
69198;BME280;56311;50.298;8.514;2024-01-25T09:00:00;98960.0;;;6.7;60.0
69198;BME280;56311;50.298;8.514;2024-01-25T09:02:02;98960.0;;;6.8;60.0
69198;BME280;56311;50.298;8.514;2024-01-25T09:04:00;98960.0;;;6.9;60.3
69198;BME280;56311;50.298;8.514;2024-01-25T09:06:00;98960.0;;;6.9;59.6
69198;BME280;56311;50.298;8.514;2024-01-25T09:08:00;98960.0;;;7.1;58.1
69198;BME280;56311;50.298;8.514;2024-01-25T09:10:00;98970.0;;;7.3;58.0
69198;BME280;56311;50.298;8.514;2024-01-25T09:12:00;98980.0;;;7.4;58.9
69198;BME280;56311;50.298;8.514;2024-01-25T09:14:01;98980.0;;;7.2;58.3
69198;BME280;56311;50.298;8.514;2024-01-25T09:16:00;98980.0;;;7.2;58.2
69198;BME280;56311;50.298;8.514;2024-01-25T09:18:00;98980.0;;;7.2;58.2
69198;BME280;56311;50.298;8.514;2024-01-25T09:20:00;98970.0;;;7.1;59.2
69198;BME280;56311;50.298;8.514;2024-01-25T09:22:00;98970.0;;;7.1;58.8
69198;BME280;56311;50.298;8.514;2024-01-25T09:24:00;98970.0;;;7.1;59.2
69198;BME280;56311;50.298;8.514;2024-01-25T09:26:00;98970.0;;;7.0;60.4
69198;BME280;56311;50.298;8.514;2024-01-25T09:28:01;98970.0;;;6.9;61.0
69198;BME280;56311;50.298;8.514;2024-01-25T09:30:00;98970.0;;;6.9;60.0
69198;BME280;56311;50.298;8.514;2024-01-25T09:32:00;98970.0;;;6.9;60.2
69198;BME280;56311;50.298;8.514;2024-01-25T09:34:00;98980.0;;;6.9;58.6
69198;BME280;56311;50.298;8.514;2024-01-25T09:36:00;98970.0;;;6.9;58.6
69198;BME280;56311;50.298;8.514;2024-01-25T09:38:00;98970.0;;;6.9;58.6
69198;BME280;56311;50.298;8.514;2024-01-25T09:40:00;98980.0;;;7.0;58.6
69198;BME280;56311;50.298;8.514;2024-01-25T09:42:00;98980.0;;;7.0;58.6
69198;BME280;56311;50.298;8.514;2024-01-25T09:44:00;98990.0;;;7.0;58.5
69198;BME280;56311;50.298;8.514;2024-01-25T09:46:00;98990.0;;;7.0;59.1
69198;BME280;56311;50.298;8.514;2024-01-25T09:48:00;98990.0;;;7.0;58.1
69198;BME280;56311;50.298;8.514;2024-01-25T09:50:00;98990.0;;;7.0;56.9
69198;BME280;56311;50.298;8.514;2024-01-25T09:52:01;99000.0;;;7.1;56.1
69198;BME280;56311;50.298;8.514;2024-01-25T09:54:00;99000.0;;;7.1;56.3
69198;BME280;56311;50.298;8.514;2024-01-25T09:56:05;99010.0;;;7.2;56.2
69198;BME280;56311;50.298;8.514;2024-01-25T09:58:00;99010.0;;;7.2;56.6
69198;BME280;56311;50.298;8.514;2024-01-25T10:00:00;99010.0;;;7.3;56.7
69198;BME280;56311;50.298;8.514;2024-01-25T10:02:01;99010.0;;;7.3;57.0
69198;BME280;56311;50.298;8.514;2024-01-25T10:04:00;99010.0;;;7.3;57.1
69198;BME280;56311;50.298;8.514;2024-01-25T10:06:00;99010.0;;;7.5;55.8
69198;BME280;56311;50.298;8.514;2024-01-25T10:08:00;99010.0;;;7.6;57.1
69198;BME280;56311;50.298;8.514;2024-01-25T10:10:00;99000.0;;;7.6;56.5
69198;BME280;56311;50.298;8.514;2024-01-25T10:12:00;99000.0;;;7.6;56.8
69198;BME280;56311;50.298;8.514;2024-01-25T10:14:00;99000.0;;;7.5;56.4
69198;BME280;56311;50.298;8.514;2024-01-25T10:16:00;99010.0;;;7.5;55.1
69198;BME280;56311;50.298;8.514;2024-01-25T10:18:00;99020.0;;;7.6;54.7
69198;BME280;56311;50.298;8.514;2024-01-25T10:20:00;99010.0;;;7.6;54.9
69198;BME280;56311;50.298;8.514;2024-01-25T10:22:00;99010.0;;;7.6;57.3
69198;BME280;56311;50.298;8.514;2024-01-25T10:24:00;99010.0;;;7.5;55.7
69198;BME280;56311;50.298;8.514;2024-01-25T10:26:00;99010.0;;;7.5;55.5
69198;BME280;56311;50.298;8.514;2024-01-25T10:28:00;99000.0;;;7.6;55.5
69198;BME280;56311;50.298;8.514;2024-01-25T10:30:00;99000.0;;;7.6;55.4
69198;BME280;56311;50.298;8.514;2024-01-25T10:32:01;99000.0;;;7.6;56.0
69198;BME280;56311;50.298;8.514;2024-01-25T10:34:00;99000.0;;;7.5;56.3
69198;BME280;56311;50.298;8.514;2024-01-25T10:36:01;99010.0;;;7.5;54.9
69198;BME280;56311;50.298;8.514;2024-01-25T10:38:00;99000.0;;;7.6;54.2
69198;BME280;56311;50.298;8.514;2024-01-25T10:40:01;99000.0;;;7.7;54.3
69198;BME280;56311;50.298;8.514;2024-01-25T10:42:00;99010.0;;;7.7;53.9
69198;BME280;56311;50.298;8.514;2024-01-25T10:44:00;99010.0;;;7.8;55.3
69198;BME280;56311;50.298;8.514;2024-01-25T10:46:00;99020.0;;;7.7;55.5
69198;BME280;56311;50.298;8.514;2024-01-25T10:48:00;99020.0;;;7.7;54.9
69198;BME280;56311;50.298;8.514;2024-01-25T10:50:00;99020.0;;;7.7;53.9
69198;BME280;56311;50.298;8.514;2024-01-25T10:52:01;99010.0;;;7.7;53.5
69198;BME280;56311;50.298;8.514;2024-01-25T10:54:01;99020.0;;;7.7;54.4
69198;BME280;56311;50.298;8.514;2024-01-25T10:56:01;99020.0;;;7.8;53.3
69198;BME280;56311;50.298;8.514;2024-01-25T10:58:00;99010.0;;;7.8;54.3
69198;BME280;56311;50.298;8.514;2024-01-25T11:00:01;99010.0;;;7.9;52.8
69198;BME280;56311;50.298;8.514;2024-01-25T11:02:00;99010.0;;;8.0;54.1
69198;BME280;56311;50.298;8.514;2024-01-25T11:04:01;99000.0;;;7.9;53.5
69198;BME280;56311;50.298;8.514;2024-01-25T11:06:08;98990.0;;;7.9;54.6
69198;BME280;56311;50.298;8.514;2024-01-25T11:08:00;98980.0;;;7.9;56.1
69198;BME280;56311;50.298;8.514;2024-01-25T11:10:00;98990.0;;;7.7;54.1